Station History

Weather Underground - logo

Station Historical Data
Daily Summary for January 16, 2018 Units:  Both    English   Metric
« Previous Day
Next Day »
Daily Weekly Monthly Yearly Custom
  High: Low: Average:
Temperature: TemperatureF °F /  -17.8 °C 45.9 °F /  7.7 °C 49.7 °F /  9.8 °C
Dew Point: DewpointF °F /  -17.8 °C 44.8 °F /  7.1 °C 48.5 °F /  9.2 °C
Humidity: Humidity % 89 % 95 %
Wind Speed: WindSpeedMPH mph /  0 km/h - 0.5 mph /  0.8 km/h
Wind Gust: WindSpeedGustMPH mph /  0 km/h - -
Wind:- - South
Pressure: PressureIn in /  0 hPa 30.15 in /  1020.9 hPa -
Precipitation: 0.01 in /  0.25 mm    
Historical Graphs
 
 
Tabular Data for January 16, 2018
Time Temperature Dew Point Pressure Wind Wind Speed Wind Gust Humidity Rainfall Rate (Hourly)
TemperatureF °F /  -17.8 °C DewpointF °F /  -17.8 °C PressureIn in /  0 hPa Calm     Humidity % HourlyPrecipIn in /  0 mm
00:28 47.0 °F /  8.3 °C 46.2 °F /  7.9 °C 30.15 in /  1020.9 hPa Calm     97 % 0.00 in /  0 mm
00:37 46.1 °F /  7.8 °C 45.0 °F /  7.2 °C 30.16 in /  1021.2 hPa Calm     96 % 0.00 in /  0 mm
00:43 45.9 °F /  7.7 °C 44.8 °F /  7.1 °C 30.16 in /  1021.2 hPa Calm     96 % 0.00 in /  0 mm
00:50 46.0 °F /  7.8 °C 44.9 °F /  7.2 °C 30.16 in /  1021.2 hPa SE 1.2 mph /  1.9 km/h   96 % 0.00 in /  0 mm
01:05 46.1 °F /  7.8 °C 45.0 °F /  7.2 °C 30.16 in /  1021.2 hPa Calm     96 % 0.00 in /  0 mm
01:18 46.4 °F /  8 °C 45.6 °F /  7.6 °C 30.16 in /  1021.2 hPa Calm     97 % 0.00 in /  0 mm
01:24 46.5 °F /  8.1 °C 45.7 °F /  7.6 °C 30.16 in /  1021.2 hPa Calm     97 % 0.00 in /  0 mm
01:30 46.5 °F /  8.1 °C 45.7 °F /  7.6 °C 30.16 in /  1021.2 hPa SE 1.2 mph /  1.9 km/h 1.2 mph /  1.9 km/h 97 % 0.00 in /  0 mm
01:51 46.3 °F /  7.9 °C 45.2 °F /  7.3 °C 30.18 in /  1021.9 hPa Calm     96 % 0.00 in /  0 mm
01:56 46.3 °F /  7.9 °C 45.2 °F /  7.3 °C 30.18 in /  1021.9 hPa Calm     96 % 0.00 in /  0 mm
01:57 46.3 °F /  7.9 °C 45.2 °F /  7.3 °C 30.18 in /  1021.9 hPa Calm     96 % 0.00 in /  0 mm
02:23 45.9 °F /  7.7 °C 44.8 °F /  7.1 °C 30.19 in /  1022.2 hPa Calm     96 % 0.00 in /  0 mm
02:29 46.0 °F /  7.8 °C 45.2 °F /  7.3 °C 30.19 in /  1022.2 hPa Calm     97 % 0.00 in /  0 mm
02:36 46.0 °F /  7.8 °C 45.2 °F /  7.3 °C 30.19 in /  1022.2 hPa ESE 1.2 mph /  1.9 km/h 1.2 mph /  1.9 km/h 97 % 0.00 in /  0 mm
02:41 46.1 °F /  7.8 °C 45.3 °F /  7.4 °C 30.19 in /  1022.2 hPa ESE 1.2 mph /  1.9 km/h 1.2 mph /  1.9 km/h 97 % 0.00 in /  0 mm
03:06 46.5 °F /  8.1 °C 45.7 °F /  7.6 °C 30.18 in /  1021.9 hPa ESE 1.2 mph /  1.9 km/h 1.2 mph /  1.9 km/h 97 % 0.00 in /  0 mm
03:22 46.5 °F /  8.1 °C 45.7 °F /  7.6 °C 30.19 in /  1022.2 hPa Calm     97 % 0.00 in /  0 mm
03:38 46.6 °F /  8.1 °C 45.8 °F /  7.7 °C 30.18 in /  1021.9 hPa Calm     97 % 0.00 in /  0 mm
03:54 46.8 °F /  8.2 °C 46.0 °F /  7.8 °C 30.19 in /  1022.2 hPa ESE 1.2 mph /  1.9 km/h 1.2 mph /  1.9 km/h 97 % 0.01 in /  0.25 mm
04:16 47.0 °F /  8.3 °C 46.2 °F /  7.9 °C 30.19 in /  1022.2 hPa Calm     97 % 0.01 in /  0.25 mm
04:30 47.1 °F /  8.4 °C 46.3 °F /  7.9 °C 30.19 in /  1022.2 hPa Calm     97 % 0.01 in /  0.25 mm
04:37 47.2 °F /  8.4 °C 46.4 °F /  8 °C 30.19 in /  1022.2 hPa Calm     97 % 0.01 in /  0.25 mm
04:42 47.1 °F /  8.4 °C 46.3 °F /  7.9 °C 30.18 in /  1021.9 hPa Calm     97 % 0.01 in /  0.25 mm
04:51 47.2 °F /  8.4 °C 46.4 °F /  8 °C 30.21 in /  1022.9 hPa Calm     97 % 0.00 in /  0 mm
05:05 47.2 °F /  8.4 °C 46.4 °F /  8 °C 30.20 in /  1022.6 hPa Calm     97 % 0.00 in /  0 mm
05:13 47.2 °F /  8.4 °C 46.4 °F /  8 °C 30.20 in /  1022.6 hPa Calm     97 % 0.00 in /  0 mm
05:26 47.2 °F /  8.4 °C 46.4 °F /  8 °C 30.20 in /  1022.6 hPa Calm     97 % 0.00 in /  0 mm
05:42 47.2 °F /  8.4 °C 46.4 °F /  8 °C 30.21 in /  1022.9 hPa Calm     97 % 0.00 in /  0 mm
05:50 47.3 °F /  8.5 °C 46.5 °F /  8.1 °C 30.21 in /  1022.9 hPa ESE 1.2 mph /  1.9 km/h 1.2 mph /  1.9 km/h 97 % 0.00 in /  0 mm
05:55 47.3 °F /  8.5 °C 46.5 °F /  8.1 °C 30.21 in /  1022.9 hPa ESE 2.3 mph /  3.7 km/h 2.3 mph /  3.7 km/h 97 % 0.00 in /  0 mm
06:01 47.4 °F /  8.6 °C 46.6 °F /  8.1 °C 30.21 in /  1022.9 hPa Calm     97 % 0.00 in /  0 mm
06:07 47.5 °F /  8.6 °C 46.7 °F /  8.2 °C 30.22 in /  1023.2 hPa Calm     97 % 0.00 in /  0 mm
06:33 47.5 °F /  8.6 °C 46.7 °F /  8.2 °C 30.23 in /  1023.6 hPa Calm     97 % 0.00 in /  0 mm
06:40 47.4 °F /  8.6 °C 46.6 °F /  8.1 °C 30.23 in /  1023.6 hPa Calm     97 % 0.00 in /  0 mm
06:52 47.5 °F /  8.6 °C 46.7 °F /  8.2 °C 30.23 in /  1023.6 hPa Calm     97 % 0.00 in /  0 mm
07:03 47.6 °F /  8.7 °C 46.8 °F /  8.2 °C 30.22 in /  1023.2 hPa Calm     97 % 0.00 in /  0 mm
07:09 47.6 °F /  8.7 °C 46.8 °F /  8.2 °C 30.22 in /  1023.2 hPa ESE 1.2 mph /  1.9 km/h   97 % 0.00 in /  0 mm
07:17 47.6 °F /  8.7 °C 46.8 °F /  8.2 °C 30.22 in /  1023.2 hPa ESE 1.2 mph /  1.9 km/h 1.2 mph /  1.9 km/h 97 % 0.00 in /  0 mm
07:34 47.5 °F /  8.6 °C 46.7 °F /  8.2 °C 30.22 in /  1023.2 hPa ESE 1.2 mph /  1.9 km/h   97 % 0.00 in /  0 mm
07:42 47.4 °F /  8.6 °C 46.6 °F /  8.1 °C 30.22 in /  1023.2 hPa ESE 1.2 mph /  1.9 km/h   97 % 0.00 in /  0 mm
07:49 47.4 °F /  8.6 °C 46.6 °F /  8.1 °C 30.21 in /  1022.9 hPa Calm     97 % 0.00 in /  0 mm
07:56 47.4 °F /  8.6 °C 46.6 °F /  8.1 °C 30.21 in /  1022.9 hPa ESE 1.2 mph /  1.9 km/h   97 % 0.00 in /  0 mm
08:12 47.4 °F /  8.6 °C 46.6 °F /  8.1 °C 30.21 in /  1022.9 hPa Calm     97 % 0.00 in /  0 mm
08:17 47.4 °F /  8.6 °C 46.6 °F /  8.1 °C 30.20 in /  1022.6 hPa Calm     97 % 0.00 in /  0 mm
08:29 47.6 °F /  8.7 °C 46.8 °F /  8.2 °C 30.21 in /  1022.9 hPa SE 2.3 mph /  3.7 km/h 2.3 mph /  3.7 km/h 97 % 0.00 in /  0 mm
08:47 48.5 °F /  9.2 °C 47.7 °F /  8.7 °C 30.21 in /  1022.9 hPa Calm     97 % 0.00 in /  0 mm
08:58 48.9 °F /  9.4 °C 48.1 °F /  8.9 °C 30.23 in /  1023.6 hPa NW 1.2 mph /  1.9 km/h 1.2 mph /  1.9 km/h 97 % 0.00 in /  0 mm
09:15 49.2 °F /  9.6 °C 48.4 °F /  9.1 °C 30.25 in /  1024.3 hPa NW 1.2 mph /  1.9 km/h 1.2 mph /  1.9 km/h 97 % 0.00 in /  0 mm
09:30 49.7 °F /  9.8 °C 48.9 °F /  9.4 °C 30.24 in /  1023.9 hPa Calm     97 % 0.00 in /  0 mm
09:38 49.7 °F /  9.8 °C 48.9 °F /  9.4 °C 30.25 in /  1024.3 hPa Calm     97 % 0.00 in /  0 mm
09:55 49.7 °F /  9.8 °C 48.9 °F /  9.4 °C 30.27 in /  1024.9 hPa WNW 1.2 mph /  1.9 km/h   97 % 0.00 in /  0 mm
10:02 49.7 °F /  9.8 °C 48.9 °F /  9.4 °C 30.28 in /  1025.3 hPa WNW 1.2 mph /  1.9 km/h 1.2 mph /  1.9 km/h 97 % 0.00 in /  0 mm
10:17 49.6 °F /  9.8 °C 48.8 °F /  9.3 °C 30.28 in /  1025.3 hPa WNW 1.2 mph /  1.9 km/h 1.2 mph /  1.9 km/h 97 % 0.00 in /  0 mm
10:30 49.9 °F /  9.9 °C 49.1 °F /  9.5 °C 30.27 in /  1024.9 hPa SSE 1.2 mph /  1.9 km/h   97 % 0.00 in /  0 mm
10:50 50.3 °F /  10.2 °C 49.5 °F /  9.7 °C 30.28 in /  1025.3 hPa Calm     97 % 0.00 in /  0 mm
11:12 50.9 °F /  10.5 °C 50.1 °F /  10.1 °C 30.27 in /  1024.9 hPa SE 1.2 mph /  1.9 km/h   97 % 0.00 in /  0 mm
11:26 51.4 °F /  10.8 °C 50.6 °F /  10.3 °C 30.27 in /  1024.9 hPa SE 1.2 mph /  1.9 km/h 1.2 mph /  1.9 km/h 97 % 0.00 in /  0 mm
11:34 51.6 °F /  10.9 °C 50.8 °F /  10.4 °C 30.26 in /  1024.6 hPa Calm     97 % 0.00 in /  0 mm
11:40 51.5 °F /  10.8 °C 50.7 °F /  10.4 °C 30.26 in /  1024.6 hPa Calm     97 % 0.00 in /  0 mm
11:46 51.7 °F /  10.9 °C 50.9 °F /  10.5 °C 30.26 in /  1024.6 hPa Calm     97 % 0.00 in /  0 mm
11:54 51.8 °F /  11 °C 51.0 °F /  10.6 °C 30.25 in /  1024.3 hPa Calm     97 % 0.00 in /  0 mm
12:05 51.9 °F /  11.1 °C 50.8 °F /  10.4 °C 30.24 in /  1023.9 hPa SSE 1.2 mph /  1.9 km/h   96 % 0.00 in /  0 mm
12:14 52.2 °F /  11.2 °C 51.1 °F /  10.6 °C 30.24 in /  1023.9 hPa Calm     96 % 0.00 in /  0 mm
12:29 52.8 °F /  11.6 °C 51.4 °F /  10.8 °C 30.23 in /  1023.6 hPa Calm     95 % 0.00 in /  0 mm
12:42 53.8 °F /  12.1 °C 52.1 °F /  11.2 °C 30.23 in /  1023.6 hPa SE 2.0 mph /  3.2 km/h 2.0 mph /  3.2 km/h 94 % 0.00 in /  0 mm
12:48 54.4 °F /  12.4 °C 52.4 °F /  11.3 °C 30.23 in /  1023.6 hPa WNW 1.2 mph /  1.9 km/h   93 % 0.00 in /  0 mm
12:57 54.8 °F /  12.7 °C 52.5 °F /  11.4 °C 30.23 in /  1023.6 hPa NW 2.3 mph /  3.7 km/h   92 % 0.00 in /  0 mm
13:04 55.1 °F /  12.8 °C 52.5 °F /  11.4 °C 30.23 in /  1023.6 hPa Calm     91 % 0.00 in /  0 mm
13:22 54.1 °F /  12.3 °C 51.8 °F /  11 °C 30.23 in /  1023.6 hPa NNW 2.3 mph /  3.7 km/h 2.3 mph /  3.7 km/h 92 % 0.00 in /  0 mm
13:41 54.1 °F /  12.3 °C 51.5 °F /  10.8 °C 30.22 in /  1023.2 hPa SE 1.2 mph /  1.9 km/h 1.2 mph /  1.9 km/h 91 % 0.00 in /  0 mm
13:48 54.0 °F /  12.2 °C 51.4 °F /  10.8 °C 30.23 in /  1023.6 hPa WNW 1.2 mph /  1.9 km/h   91 % 0.00 in /  0 mm
14:24 55.1 °F /  12.8 °C 52.2 °F /  11.2 °C 30.22 in /  1023.2 hPa NNW 1.2 mph /  1.9 km/h   90 % 0.00 in /  0 mm
14:36 55.0 °F /  12.8 °C 51.8 °F /  11 °C 30.22 in /  1023.2 hPa Calm     89 % 0.00 in /  0 mm
14:46 55.2 °F /  12.9 °C 52.3 °F /  11.3 °C 30.22 in /  1023.2 hPa NNW 1.2 mph /  1.9 km/h   90 % 0.00 in /  0 mm
15:05 55.7 °F /  13.2 °C 52.5 °F /  11.4 °C 30.21 in /  1022.9 hPa Calm     89 % 0.00 in /  0 mm
15:14 56.0 °F /  13.3 °C 52.8 °F /  11.6 °C 30.21 in /  1022.9 hPa Calm     89 % 0.00 in /  0 mm
15:24 55.9 °F /  13.3 °C 52.7 °F /  11.5 °C 30.21 in /  1022.9 hPa SE 1.2 mph /  1.9 km/h 1.2 mph /  1.9 km/h 89 % 0.00 in /  0 mm
15:30 55.8 °F /  13.2 °C 52.6 °F /  11.4 °C 30.21 in /  1022.9 hPa Calm     89 % 0.00 in /  0 mm
15:48 55.3 °F /  12.9 °C 52.4 °F /  11.3 °C 30.22 in /  1023.2 hPa Calm     90 % 0.00 in /  0 mm
16:04 54.6 °F /  12.6 °C 52.0 °F /  11.1 °C 30.21 in /  1022.9 hPa Calm     91 % 0.00 in /  0 mm
16:10 54.3 °F /  12.4 °C 51.7 °F /  10.9 °C 30.21 in /  1022.9 hPa Calm     91 % 0.00 in /  0 mm
16:25 53.7 °F /  12.1 °C 51.4 °F /  10.8 °C 30.21 in /  1022.9 hPa Calm     92 % 0.00 in /  0 mm
16:32 53.4 °F /  11.9 °C 51.1 °F /  10.6 °C 30.21 in /  1022.9 hPa Calm     92 % 0.00 in /  0 mm
16:40 53.2 °F /  11.8 °C 51.2 °F /  10.7 °C 30.21 in /  1022.9 hPa Calm     93 % 0.00 in /  0 mm
16:47 52.9 °F /  11.6 °C 50.9 °F /  10.5 °C 30.21 in /  1022.9 hPa Calm     93 % 0.00 in /  0 mm
17:06 52.1 °F /  11.2 °C 50.4 °F /  10.2 °C 30.22 in /  1023.2 hPa Calm     94 % 0.00 in /  0 mm
17:25 51.7 °F /  10.9 °C 50.3 °F /  10.2 °C 30.21 in /  1022.9 hPa Calm     95 % 0.00 in /  0 mm
17:31 51.6 °F /  10.9 °C 50.2 °F /  10.1 °C 30.21 in /  1022.9 hPa Calm     95 % 0.00 in /  0 mm
17:44 51.6 °F /  10.9 °C 50.2 °F /  10.1 °C 30.22 in /  1023.2 hPa East 1.2 mph /  1.9 km/h   95 % 0.00 in /  0 mm
17:52 51.8 °F /  11 °C 50.7 °F /  10.4 °C 30.23 in /  1023.6 hPa West 1.2 mph /  1.9 km/h 1.2 mph /  1.9 km/h 96 % 0.00 in /  0 mm
18:07 51.9 °F /  11.1 °C 50.8 °F /  10.4 °C 30.23 in /  1023.6 hPa Calm   0.2 mph /  0.3 km/h 96 % 0.00 in /  0 mm
18:12 51.9 °F /  11.1 °C 50.8 °F /  10.4 °C 30.22 in /  1023.2 hPa Calm     96 % 0.00 in /  0 mm
18:19 52.0 °F /  11.1 °C 50.9 °F /  10.5 °C 30.22 in /  1023.2 hPa Calm     96 % 0.00 in /  0 mm
19:01 51.9 °F /  11.1 °C 50.8 °F /  10.4 °C 30.24 in /  1023.9 hPa Calm     96 % 0.00 in /  0 mm
19:08 51.9 °F /  11.1 °C 50.8 °F /  10.4 °C 30.24 in /  1023.9 hPa SE 1.2 mph /  1.9 km/h   96 % 0.00 in /  0 mm
19:24 51.8 °F /  11 °C 50.7 °F /  10.4 °C 30.24 in /  1023.9 hPa Calm     96 % 0.00 in /  0 mm
19:30 51.8 °F /  11 °C 50.7 °F /  10.4 °C 30.24 in /  1023.9 hPa Calm   0.1 mph /  0.2 km/h 96 % 0.00 in /  0 mm
19:36 51.8 °F /  11 °C 50.7 °F /  10.4 °C 30.24 in /  1023.9 hPa Calm     96 % 0.00 in /  0 mm
19:52 51.9 °F /  11.1 °C 50.8 °F /  10.4 °C 30.24 in /  1023.9 hPa SE 1.2 mph /  1.9 km/h   96 % 0.00 in /  0 mm
20:15 51.8 °F /  11 °C 50.7 °F /  10.4 °C 30.23 in /  1023.6 hPa East 1.2 mph /  1.9 km/h 1.2 mph /  1.9 km/h 96 % 0.00 in /  0 mm
20:22 51.8 °F /  11 °C 50.7 °F /  10.4 °C 30.23 in /  1023.6 hPa East 1.2 mph /  1.9 km/h   96 % 0.00 in /  0 mm
20:29 51.7 °F /  10.9 °C 50.6 °F /  10.3 °C 30.23 in /  1023.6 hPa Calm     96 % 0.00 in /  0 mm
20:54 51.1 °F /  10.6 °C 50.0 °F /  10 °C 30.23 in /  1023.6 hPa East 1.2 mph /  1.9 km/h 1.2 mph /  1.9 km/h 96 % 0.00 in /  0 mm
21:03 51.2 °F /  10.7 °C 50.1 °F /  10.1 °C 30.23 in /  1023.6 hPa Calm     96 % 0.00 in /  0 mm
21:11 51.1 °F /  10.6 °C 50.0 °F /  10 °C 30.23 in /  1023.6 hPa Calm     96 % 0.00 in /  0 mm
21:17 51.0 °F /  10.6 °C 49.9 °F /  9.9 °C 30.24 in /  1023.9 hPa Calm     96 % 0.00 in /  0 mm
21:48 50.6 °F /  10.3 °C 49.8 °F /  9.9 °C 30.24 in /  1023.9 hPa Calm     97 % 0.00 in /  0 mm
21:57 50.8 °F /  10.4 °C 50.0 °F /  10 °C 30.24 in /  1023.9 hPa Calm     97 % 0.00 in /  0 mm
22:06 50.9 °F /  10.5 °C 50.1 °F /  10.1 °C 30.24 in /  1023.9 hPa Calm     97 % 0.00 in /  0 mm
22:18 50.9 °F /  10.5 °C 50.1 °F /  10.1 °C 30.25 in /  1024.3 hPa NW 1.2 mph /  1.9 km/h 1.2 mph /  1.9 km/h 97 % 0.00 in /  0 mm
22:37 50.9 °F /  10.5 °C 50.1 °F /  10.1 °C 30.26 in /  1024.6 hPa WNW 2.3 mph /  3.7 km/h 2.3 mph /  3.7 km/h 97 % 0.00 in /  0 mm
22:46 51.0 °F /  10.6 °C 50.2 °F /  10.1 °C 30.25 in /  1024.3 hPa WNW 1.2 mph /  1.9 km/h 1.2 mph /  1.9 km/h 97 % 0.00 in /  0 mm
22:55 50.9 °F /  10.5 °C 50.1 °F /  10.1 °C 30.26 in /  1024.6 hPa Calm   0.3 mph /  0.5 km/h 97 % 0.00 in /  0 mm
23:16 50.8 °F /  10.4 °C 50.0 °F /  10 °C 30.26 in /  1024.6 hPa Calm     97 % 0.00 in /  0 mm
23:38 50.4 °F /  10.2 °C 49.6 °F /  9.8 °C 30.26 in /  1024.6 hPa Calm     97 % 0.00 in /  0 mm
23:49 50.3 °F /  10.2 °C 49.5 °F /  9.7 °C 30.26 in /  1024.6 hPa Calm     97 % 0.00 in /  0 mm
Park Place, Exeter, Tulare County, California, USA
Compliments of Weather Underground - 1.75 mb